Time;durP1;ratioP1;P1;durP2;ratioP2;P2;SDS_P1;SDS_P2;PMS_P1;PMS_P2;Temp;Humidity;BMP_temperature;BMP_pressure;BME280_temperature;BME280_humidity;BME280_pressure;Samples;Min_cycle;Max_cycle;Signal;HPM_P1;HPM_P2
2023/04/30 00:00:16;;;;;;;7.83;4.70;;;;;;;11.73;100.00;98447.34;4969841;28;20217;-76
2023/04/30 00:02:42;;;;;;;5.30;4.33;;;;;;;11.71;100.00;98457.19;4970054;28;20594;-76
2023/04/30 00:05:10;;;;;;;5.73;4.60;;;;;;;11.66;100.00;98457.50;4970161;28;20240;-77
2023/04/30 00:07:40;;;;;;;6.13;5.33;;;;;;;11.64;100.00;98466.50;4970292;28;20242;-77
2023/04/30 00:10:08;;;;;;;6.23;4.87;;;;;;;11.53;100.00;98459.25;4969985;28;20207;-77
2023/04/30 00:12:35;;;;;;;6.20;5.00;;;;;;;11.55;100.00;98472.41;4969938;28;20720;-77
2023/04/30 00:15:02;;;;;;;6.47;4.43;;;;;;;11.57;100.00;98467.84;4970034;28;20324;-77
2023/04/30 00:17:28;;;;;;;6.07;4.40;;;;;;;11.58;100.00;98457.19;4970325;28;20577;-77
2023/04/30 00:19:55;;;;;;;6.13;4.63;;;;;;;11.61;100.00;98462.25;4969989;28;20308;-77
2023/04/30 00:22:23;;;;;;;6.83;4.97;;;;;;;11.60;100.00;98459.72;4970014;28;20214;-76
2023/04/30 00:24:49;;;;;;;5.90;4.43;;;;;;;11.53;100.00;98463.69;4969700;28;20230;-76
2023/04/30 00:27:15;;;;;;;4.77;4.17;;;;;;;11.45;100.00;98466.03;4969701;28;20236;-76
2023/04/30 00:29:42;;;;;;;7.00;4.53;;;;;;;11.43;100.00;98463.47;4969444;28;20216;-75
2023/04/30 00:32:08;;;;;;;6.30;5.20;;;;;;;11.39;100.00;98471.72;4969854;28;20234;-77
2023/04/30 00:34:35;;;;;;;5.87;4.70;;;;;;;11.46;100.00;98467.72;4969475;28;20636;-76
2023/04/30 00:37:02;;;;;;;5.80;4.80;;;;;;;11.42;100.00;98463.56;4969760;28;20305;-77
2023/04/30 00:39:30;;;;;;;7.00;5.03;;;;;;;11.40;100.00;98460.19;4969339;28;20218;-77
2023/04/30 00:41:56;;;;;;;5.73;5.03;;;;;;;11.45;100.00;98460.72;4969527;28;20213;-74
2023/04/30 00:44:23;;;;;;;6.07;5.00;;;;;;;11.46;100.00;98465.06;4969483;28;20221;-76
2023/04/30 00:46:49;;;;;;;6.97;4.77;;;;;;;11.51;100.00;98465.63;4969255;28;20242;-76
2023/04/30 00:49:16;;;;;;;6.33;5.07;;;;;;;11.49;100.00;98468.34;4969418;28;20215;-77
2023/04/30 00:51:43;;;;;;;5.93;4.87;;;;;;;11.41;100.00;98469.81;4969425;28;20880;-77
2023/04/30 00:54:11;;;;;;;7.20;5.20;;;;;;;11.39;100.00;98477.88;4969388;28;20214;-76
2023/04/30 00:56:39;;;;;;;8.03;5.60;;;;;;;11.41;100.00;98469.81;4969209;28;20242;-77
2023/04/30 00:59:06;;;;;;;8.00;5.47;;;;;;;11.34;100.00;98476.47;4969476;28;20221;-77
2023/04/30 01:01:33;;;;;;;7.80;5.77;;;;;;;11.36;100.00;98478.06;4969459;28;20214;-76
2023/04/30 01:03:59;;;;;;;9.43;5.83;;;;;;;11.29;100.00;98482.09;4969356;28;20218;-77
2023/04/30 01:06:27;;;;;;;8.00;6.20;;;;;;;11.33;100.00;98472.13;4969276;28;20580;-76
2023/04/30 01:08:53;;;;;;;7.27;6.23;;;;;;;11.36;100.00;98472.78;4969261;28;20218;-77
2023/04/30 01:11:26;;;;;;;8.17;5.80;;;;;;;11.35;100.00;98470.22;4968872;28;20264;-77
2023/04/30 01:14:02;;;;;;;8.03;6.47;;;;;;;11.36;100.00;98471.91;4969168;28;20215;-77
2023/04/30 01:16:33;;;;;;;8.53;6.23;;;;;;;11.29;100.00;98470.63;4969259;28;20240;-76
2023/04/30 01:19:04;;;;;;;7.50;6.00;;;;;;;11.39;100.00;98469.94;4969279;28;20211;-76
2023/04/30 01:21:33;;;;;;;9.33;6.70;;;;;;;11.37;100.00;98469.19;4968958;28;20580;-77
2023/04/30 01:24:24;;;;;;;7.70;6.30;;;;;;;11.21;100.00;98473.81;4969331;28;20507;-76
2023/04/30 01:27:09;;;;;;;8.27;6.07;;;;;;;11.28;100.00;98467.16;4969224;28;20226;-76
2023/04/30 01:29:39;;;;;;;7.97;6.73;;;;;;;11.23;100.00;98473.69;4968754;28;20228;-76
2023/04/30 01:32:06;;;;;;;9.27;6.93;;;;;;;11.27;100.00;98472.56;4968918;28;20254;-75
2023/04/30 01:34:32;;;;;;;10.70;7.60;;;;;;;11.26;100.00;98465.56;4969099;28;20217;-76
2023/04/30 01:37:11;;;;;;;10.83;7.50;;;;;;;11.17;100.00;98466.16;4968838;28;20219;-76
2023/04/30 01:39:56;;;;;;;9.80;7.57;;;;;;;11.15;100.00;98468.06;4970927;28;20275;-76
2023/04/30 01:42:30;;;;;;;11.00;8.50;;;;;;;11.08;100.00;98467.63;4972210;28;20221;-75
2023/04/30 01:45:22;;;;;;;9.87;7.63;;;;;;;11.11;100.00;98469.22;4971969;28;20301;-75
2023/04/30 01:47:57;;;;;;;10.33;8.07;;;;;;;11.14;100.00;98467.22;4972303;28;20218;-75
2023/04/30 01:50:34;;;;;;;9.60;7.30;;;;;;;11.10;100.00;98459.59;4971817;28;20594;-76
2023/04/30 01:53:06;;;;;;;12.63;8.37;;;;;;;11.09;100.00;98455.25;4971885;28;20239;-76
2023/04/30 01:55:37;;;;;;;9.53;7.70;;;;;;;11.09;100.00;98457.88;4972106;28;20253;-76
2023/04/30 01:58:07;;;;;;;9.33;7.63;;;;;;;11.02;100.00;98460.09;4971990;28;20220;-76
2023/04/30 02:00:35;;;;;;;11.90;8.20;;;;;;;11.02;100.00;98461.91;4972050;28;20207;-77
2023/04/30 02:03:01;;;;;;;10.07;7.97;;;;;;;11.02;100.00;98465.38;4971975;28;20642;-77
2023/04/30 02:05:28;;;;;;;10.13;7.87;;;;;;;11.00;100.00;98464.63;4971801;28;20237;-77
2023/04/30 02:07:54;;;;;;;11.87;8.27;;;;;;;11.04;100.00;98470.56;4972085;28;20220;-76
2023/04/30 02:10:23;;;;;;;10.20;7.50;;;;;;;11.03;100.00;98458.28;4971679;28;20215;-76
2023/04/30 02:12:50;;;;;;;10.07;7.87;;;;;;;10.98;100.00;98450.66;4988229;28;20231;-76
2023/04/30 02:15:17;;;;;;;10.27;7.57;;;;;;;10.91;100.00;98456.44;5006040;28;20230;-76
2023/04/30 02:17:45;;;;;;;10.10;8.10;;;;;;;10.94;100.00;98464.19;5003970;28;20216;-76
2023/04/30 02:20:12;;;;;;;12.37;7.97;;;;;;;10.88;100.00;98448.72;5003957;28;20269;-77
2023/04/30 02:22:38;;;;;;;11.67;8.13;;;;;;;10.82;100.00;98454.44;5009231;28;20219;-76
2023/04/30 02:25:05;;;;;;;10.07;8.10;;;;;;;10.81;100.00;98453.56;4975525;28;20223;-77
2023/04/30 02:27:33;;;;;;;11.17;8.80;;;;;;;10.85;100.00;98460.34;4971704;28;20217;-76
2023/04/30 02:30:00;;;;;;;12.13;8.20;;;;;;;10.86;100.00;98458.53;4971165;28;20214;-76
2023/04/30 02:32:26;;;;;;;11.47;8.70;;;;;;;10.92;100.00;98450.22;4971280;28;20242;-77
2023/04/30 02:34:54;;;;;;;10.40;8.00;;;;;;;10.89;100.00;98442.50;4971722;28;20248;-76
2023/04/30 02:37:21;;;;;;;10.33;8.17;;;;;;;10.91;100.00;98448.53;4971636;28;20245;-77
2023/04/30 02:39:48;;;;;;;10.67;8.13;;;;;;;10.89;100.00;98445.97;4971191;28;20211;-77
2023/04/30 02:42:15;;;;;;;10.37;8.43;;;;;;;10.86;100.00;98440.91;4971372;28;20211;-76
2023/04/30 02:44:42;;;;;;;11.43;8.60;;;;;;;10.91;100.00;98443.22;4971209;28;20220;-76
2023/04/30 02:47:08;;;;;;;10.27;8.20;;;;;;;10.89;100.00;98442.50;4985195;22;20264;-74
2023/04/30 02:49:35;;;;;;;10.83;8.30;;;;;;;10.83;100.00;98448.19;4969766;28;20211;-75
2023/04/30 02:52:03;;;;;;;11.83;8.50;;;;;;;10.87;100.00;98441.72;4970597;28;20244;-75
2023/04/30 02:54:29;;;;;;;10.10;8.00;;;;;;;10.75;100.00;98442.53;4970861;28;20210;-75
2023/04/30 02:56:56;;;;;;;10.47;8.80;;;;;;;10.71;100.00;98452.44;4970857;28;20560;-75
2023/04/30 02:59:22;;;;;;;10.13;8.47;;;;;;;10.72;100.00;98442.75;4970924;28;20212;-74
2023/04/30 03:01:49;;;;;;;11.83;8.13;;;;;;;10.77;100.00;98445.94;4971206;28;20204;-74
2023/04/30 03:04:15;;;;;;;11.00;8.77;;;;;;;10.78;100.00;98447.63;4970700;28;20226;-74
2023/04/30 03:06:42;;;;;;;12.17;8.73;;;;;;;10.79;100.00;98441.38;4970520;28;20242;-75
2023/04/30 03:09:10;;;;;;;11.83;9.00;;;;;;;10.76;100.00;98441.59;4970484;28;20217;-75
2023/04/30 03:11:36;;;;;;;10.27;8.43;;;;;;;10.74;100.00;98440.84;4970580;28;20210;-76
2023/04/30 03:14:03;;;;;;;10.80;8.57;;;;;;;10.70;100.00;98444.66;4970539;28;20359;-75
2023/04/30 03:16:30;;;;;;;12.63;9.43;;;;;;;10.69;100.00;98449.06;4970523;28;20258;-74
2023/04/30 03:18:57;;;;;;;11.47;8.70;;;;;;;10.69;100.00;98441.13;4970619;28;20273;-74
2023/04/30 03:21:23;;;;;;;12.87;8.87;;;;;;;10.62;100.00;98445.13;4970449;28;20221;-74
2023/04/30 03:23:50;;;;;;;11.27;8.63;;;;;;;10.53;100.00;98442.22;4970469;28;20206;-74
2023/04/30 03:26:18;;;;;;;12.20;8.67;;;;;;;10.55;100.00;98445.63;4970342;28;20238;-75
2023/04/30 03:28:44;;;;;;;10.77;8.90;;;;;;;10.57;100.00;98443.72;4970278;28;20218;-75
2023/04/30 03:31:11;;;;;;;11.40;9.43;;;;;;;10.47;100.00;98448.72;4969957;28;20211;-75
2023/04/30 03:33:37;;;;;;;10.60;8.73;;;;;;;10.46;100.00;98452.34;4970422;28;20862;-75
2023/04/30 03:36:04;;;;;;;13.53;9.13;;;;;;;10.45;100.00;98449.81;4970252;28;20238;-75
2023/04/30 03:38:31;;;;;;;9.87;8.63;;;;;;;10.44;100.00;98445.44;4970336;28;20216;-77
2023/04/30 03:40:57;;;;;;;12.13;9.30;;;;;;;10.43;100.00;98451.69;4970322;28;20215;-74
2023/04/30 03:43:25;;;;;;;12.30;9.73;;;;;;;10.44;100.00;98448.09;4970018;28;20217;-76
2023/04/30 03:45:51;;;;;;;12.57;9.57;;;;;;;10.41;100.00;98454.41;4970092;28;20267;-75
2023/04/30 03:48:18;;;;;;;11.70;9.60;;;;;;;10.44;100.00;98453.38;4970319;28;20207;-76
2023/04/30 03:50:45;;;;;;;12.33;9.30;;;;;;;10.46;100.00;98456.78;4969849;28;20224;-74
2023/04/30 03:53:11;;;;;;;11.53;9.17;;;;;;;10.46;100.00;98454.13;4970011;28;20316;-74
2023/04/30 03:55:38;;;;;;;11.83;9.50;;;;;;;10.41;100.00;98450.94;4969836;28;20232;-74
2023/04/30 03:58:05;;;;;;;11.47;8.77;;;;;;;10.35;100.00;98453.97;4969714;28;20220;-74
2023/04/30 04:00:33;;;;;;;11.57;9.33;;;;;;;10.33;100.00;98455.88;4969731;28;20216;-74
2023/04/30 04:03:00;;;;;;;10.80;9.03;;;;;;;10.27;100.00;98456.25;4969682;28;20215;-75
2023/04/30 04:05:26;;;;;;;10.90;8.83;;;;;;;10.25;100.00;98455.47;4969820;28;20234;-75
2023/04/30 04:07:53;;;;;;;11.80;9.63;;;;;;;10.20;100.00;98449.63;4969777;28;20673;-75
2023/04/30 04:10:19;;;;;;;11.43;9.43;;;;;;;10.19;100.00;98453.22;4969429;28;20212;-75
2023/04/30 04:12:46;;;;;;;12.83;9.97;;;;;;;10.22;100.00;98459.16;4969556;28;20227;-75
2023/04/30 04:15:12;;;;;;;11.50;9.50;;;;;;;10.19;100.00;98459.38;4969618;28;20281;-74
2023/04/30 04:17:40;;;;;;;12.03;9.00;;;;;;;10.13;100.00;98457.09;4969588;28;20686;-75
2023/04/30 04:20:08;;;;;;;11.50;8.73;;;;;;;10.11;100.00;98468.72;4969329;28;20215;-75
2023/04/30 04:22:35;;;;;;;11.37;9.47;;;;;;;10.11;100.00;98476.63;4969825;28;20223;-75
2023/04/30 04:25:01;;;;;;;12.60;9.37;;;;;;;10.09;100.00;98470.59;4969312;28;20218;-74
2023/04/30 04:27:28;;;;;;;15.90;10.73;;;;;;;10.15;100.00;98473.69;4969557;28;20220;-75
2023/04/30 04:29:54;;;;;;;12.13;9.67;;;;;;;10.19;100.00;98469.06;4969390;28;20214;-75
2023/04/30 04:32:21;;;;;;;12.70;9.43;;;;;;;10.24;100.00;98472.28;4969465;28;20234;-75
2023/04/30 04:34:49;;;;;;;14.03;10.73;;;;;;;10.31;100.00;98463.03;4969649;28;20211;-75
2023/04/30 04:37:16;;;;;;;14.37;10.50;;;;;;;10.34;100.00;98468.97;4969386;28;20228;-75
2023/04/30 04:39:43;;;;;;;14.13;10.97;;;;;;;10.37;100.00;98470.56;4969046;28;20311;-75
2023/04/30 04:42:10;;;;;;;15.10;11.00;;;;;;;10.34;100.00;98471.59;4969666;28;20586;-74
2023/04/30 04:44:38;;;;;;;14.53;11.03;;;;;;;10.31;100.00;98474.44;4969437;28;20251;-73
2023/04/30 04:47:04;;;;;;;15.97;10.63;;;;;;;10.25;100.00;98481.91;4969292;28;20585;-75
2023/04/30 04:49:31;;;;;;;15.33;10.93;;;;;;;10.26;100.00;98481.81;4969158;28;20299;-74
2023/04/30 04:52:00;;;;;;;13.70;10.33;;;;;;;10.28;100.00;98473.78;4969241;28;20218;-75
2023/04/30 04:54:27;;;;;;;14.17;10.30;;;;;;;10.28;100.00;98485.19;4969062;28;20232;-75
2023/04/30 04:56:54;;;;;;;14.23;11.20;;;;;;;10.29;100.00;98476.31;4969257;28;20253;-74
2023/04/30 04:59:20;;;;;;;14.60;10.83;;;;;;;10.29;100.00;98470.19;4968901;28;20254;-74
2023/04/30 05:01:47;;;;;;;13.63;10.60;;;;;;;10.32;100.00;98475.28;4969256;28;20214;-74
2023/04/30 05:04:13;;;;;;;15.60;10.90;;;;;;;10.38;100.00;98469.59;4969109;28;20214;-74
2023/04/30 05:06:41;;;;;;;14.30;11.37;;;;;;;10.42;100.00;98479.06;4969011;28;20239;-74
2023/04/30 05:09:09;;;;;;;14.00;10.37;;;;;;;10.51;100.00;98481.97;4969077;28;20209;-74
2023/04/30 05:11:36;;;;;;;15.30;11.53;;;;;;;10.57;100.00;98476.28;4969194;28;20216;-74
2023/04/30 05:14:02;;;;;;;14.33;10.80;;;;;;;10.60;100.00;98476.09;4970517;28;20238;-74
2023/04/30 05:16:28;;;;;;;14.10;11.07;;;;;;;10.66;100.00;98474.84;4972350;28;20245;-74
2023/04/30 05:18:55;;;;;;;13.17;10.67;;;;;;;10.71;100.00;98473.59;4972680;28;20690;-73
2023/04/30 05:21:21;;;;;;;12.63;10.87;;;;;;;10.80;100.00;98482.75;4971907;28;20681;-73
2023/04/30 05:23:48;;;;;;;14.50;10.67;;;;;;;10.85;100.00;98485.94;4972371;28;20218;-74
2023/04/30 05:26:16;;;;;;;17.17;11.47;;;;;;;10.90;100.00;98478.56;4971992;28;20234;-74
2023/04/30 05:28:42;;;;;;;13.27;10.83;;;;;;;10.98;100.00;98489.47;4972289;28;20487;-74
2023/04/30 05:31:09;;;;;;;13.57;10.77;;;;;;;11.05;100.00;98482.84;4971935;28;20587;-74
2023/04/30 05:33:36;;;;;;;13.23;11.10;;;;;;;11.15;100.00;98487.44;4972044;28;20578;-74
2023/04/30 05:36:03;;;;;;;14.27;11.00;;;;;;;11.23;100.00;98486.91;4972023;28;20805;-74
2023/04/30 05:38:29;;;;;;;13.67;10.50;;;;;;;11.28;100.00;98475.09;4972234;28;20592;-74
2023/04/30 05:40:56;;;;;;;13.47;10.70;;;;;;;11.39;100.00;98477.03;4971815;28;20227;-74
2023/04/30 05:43:24;;;;;;;13.03;11.00;;;;;;;11.44;100.00;98485.50;4972022;28;20215;-74
2023/04/30 05:45:50;;;;;;;13.50;10.83;;;;;;;11.49;100.00;98472.81;4971628;28;20243;-73
2023/04/30 05:48:17;;;;;;;12.87;10.40;;;;;;;11.46;100.00;98473.00;4971775;28;20226;-74
2023/04/30 05:50:43;;;;;;;13.53;10.60;;;;;;;11.53;100.00;98475.16;4971858;28;20544;-74
2023/04/30 05:53:10;;;;;;;11.70;9.50;;;;;;;11.50;100.00;98470.03;4971681;28;20241;-76
2023/04/30 05:55:37;;;;;;;13.13;10.43;;;;;;;11.55;100.00;98472.41;4971661;28;20242;-75
2023/04/30 05:58:03;;;;;;;16.10;10.47;;;;;;;11.63;100.00;98467.47;4971697;28;20217;-74
2023/04/30 06:00:31;;;;;;;13.47;10.40;;;;;;;11.79;100.00;98462.81;4971462;28;20585;-74
2023/04/30 06:02:57;;;;;;;12.70;10.33;;;;;;;11.97;100.00;98461.53;4971613;28;20202;-74
2023/04/30 06:05:24;;;;;;;12.83;9.97;;;;;;;12.11;100.00;98456.13;4971882;28;20685;-74
2023/04/30 06:07:50;;;;;;;12.73;10.23;;;;;;;12.21;100.00;98458.03;4971787;28;20221;-74
2023/04/30 06:10:17;;;;;;;12.80;10.17;;;;;;;12.20;100.00;98456.34;4971159;28;20221;-75
2023/04/30 06:12:43;;;;;;;12.57;10.10;;;;;;;12.27;99.86;98462.03;4971500;28;20214;-74
2023/04/30 06:15:10;;;;;;;11.57;9.33;;;;;;;12.28;98.62;98459.28;4971423;28;20699;-74
2023/04/30 06:17:38;;;;;;;10.40;9.07;;;;;;;12.38;98.16;98465.63;4971333;28;20216;-74
2023/04/30 06:20:06;;;;;;;13.30;10.30;;;;;;;12.52;97.80;98461.97;4971310;28;20218;-74
2023/04/30 06:22:33;;;;;;;13.17;9.77;;;;;;;12.68;96.95;98457.28;4971551;28;20218;-74
2023/04/30 06:24:59;;;;;;;12.87;9.83;;;;;;;12.81;97.20;98464.22;4971283;28;20681;-75
2023/04/30 06:27:26;;;;;;;11.57;9.77;;;;;;;13.07;96.08;98459.72;4971399;28;20292;-76
2023/04/30 06:29:53;;;;;;;11.57;9.80;;;;;;;13.25;94.32;98458.31;4971108;28;20298;-77
2023/04/30 06:32:19;;;;;;;10.10;9.03;;;;;;;13.43;93.45;98459.59;4971114;28;20716;-76
2023/04/30 06:34:47;;;;;;;12.77;9.80;;;;;;;13.52;93.04;98456.25;4971044;28;20235;-76
2023/04/30 06:37:14;;;;;;;11.73;9.33;;;;;;;13.62;93.13;98457.25;4971664;28;20234;-76
2023/04/30 06:39:40;;;;;;;13.67;9.53;;;;;;;13.69;92.99;98458.47;4970909;28;20699;-76
2023/04/30 06:42:07;;;;;;;12.57;9.83;;;;;;;13.67;91.42;98460.38;4971112;28;20231;-76
2023/04/30 06:44:33;;;;;;;10.87;9.50;;;;;;;13.68;90.82;98456.78;4971135;28;20214;-77
2023/04/30 06:46:59;;;;;;;9.67;8.60;;;;;;;13.70;89.86;98457.50;4970940;28;20251;-76
2023/04/30 06:49:26;;;;;;;10.73;9.10;;;;;;;13.80;89.89;98461.13;4970965;28;20222;-77
2023/04/30 06:51:54;;;;;;;10.80;9.30;;;;;;;13.85;89.87;98454.53;4971076;28;20211;-75
2023/04/30 06:54:22;;;;;;;12.13;9.77;;;;;;;13.89;89.82;98460.44;4970880;28;20236;-75
2023/04/30 06:56:49;;;;;;;11.13;9.93;;;;;;;13.99;88.88;98456.94;4970668;28;20283;-76
2023/04/30 06:59:16;;;;;;;10.70;9.50;;;;;;;14.04;87.70;98459.25;4970444;28;20218;-76
2023/04/30 07:01:43;;;;;;;10.20;9.10;;;;;;;14.09;87.57;98462.38;4971009;28;20260;-76
2023/04/30 07:04:09;;;;;;;11.27;9.07;;;;;;;14.13;86.66;98459.38;4970919;28;20211;-76
2023/04/30 07:06:36;;;;;;;12.13;9.57;;;;;;;14.26;85.97;98459.28;4970799;28;20229;-77
2023/04/30 07:09:04;;;;;;;10.70;8.90;;;;;;;14.30;85.88;98460.75;4970568;28;20352;-76
2023/04/30 07:11:31;;;;;;;10.00;8.47;;;;;;;14.43;85.66;98456.16;4970553;28;20217;-76
2023/04/30 07:13:57;;;;;;;11.00;8.33;;;;;;;14.48;83.96;98443.34;4970401;28;20247;-77
2023/04/30 07:16:26;;;;;;;10.93;9.07;;;;;;;14.55;83.04;98440.03;4970662;28;20237;-77
2023/04/30 07:18:53;;;;;;;10.30;8.83;;;;;;;14.64;82.73;98443.78;4970588;28;20239;-77
2023/04/30 07:21:19;;;;;;;9.70;8.53;;;;;;;14.77;82.26;98439.16;4970356;28;20219;-77
2023/04/30 07:23:45;;;;;;;8.80;7.90;;;;;;;14.83;81.45;98439.53;4970448;28;20209;-76
2023/04/30 07:26:14;;;;;;;9.37;8.33;;;;;;;14.78;77.75;98419.59;4970277;28;20234;-79
2023/04/30 07:28:41;;;;;;;11.40;9.10;;;;;;;14.78;79.92;98435.56;4970389;28;20216;-76
2023/04/30 07:31:07;;;;;;;10.77;8.67;;;;;;;14.71;78.49;98421.91;4970485;28;20240;-76
2023/04/30 07:33:34;;;;;;;8.87;7.47;;;;;;;14.62;77.64;98419.13;4971000;28;20235;-76
2023/04/30 07:36:03;;;;;;;11.33;7.90;;;;;;;14.58;80.98;98436.31;4970252;28;20233;-76
2023/04/30 07:38:30;;;;;;;9.57;8.30;;;;;;;14.62;81.93;98445.75;4970898;28;20293;-77
2023/04/30 07:40:56;;;;;;;8.57;7.67;;;;;;;14.65;81.94;98432.16;4970363;28;20219;-77
2023/04/30 07:43:24;;;;;;;10.07;8.97;;;;;;;14.78;79.19;98416.94;4970563;28;20209;-79
2023/04/30 07:45:52;;;;;;;10.00;7.87;;;;;;;14.84;78.70;98419.91;4970213;28;20287;-79
2023/04/30 07:48:18;;;;;;;8.90;7.37;;;;;;;14.92;80.93;98427.28;4970151;28;20210;-83
2023/04/30 07:50:47;;;;;;;8.77;7.87;;;;;;;15.10;78.33;98425.78;4970005;28;20212;-85
2023/04/30 07:53:14;;;;;;;8.80;7.07;;;;;;;15.13;80.20;98434.34;4969944;28;20217;-80
2023/04/30 07:55:40;;;;;;;9.87;7.90;;;;;;;15.19;78.54;98409.88;4969890;28;20244;-79
2023/04/30 07:58:07;;;;;;;8.27;7.47;;;;;;;15.31;79.71;98424.84;4970221;28;20325;-84
2023/04/30 08:00:35;;;;;;;9.47;7.60;;;;;;;15.29;80.48;98429.44;4970129;28;20376;-84
2023/04/30 08:03:02;;;;;;;7.50;6.70;;;;;;;15.12;77.18;98407.84;4968652;28;20222;-86
2023/04/30 08:05:28;;;;;;;8.40;7.13;;;;;;;15.05;79.08;98425.31;4968611;28;20229;-84
2023/04/30 08:07:55;;;;;;;8.53;7.13;;;;;;;15.21;78.15;98407.09;4970212;28;20214;-84
2023/04/30 08:10:21;;;;;;;7.27;6.57;;;;;;;15.28;78.74;98411.75;4968532;28;20560;-85
2023/04/30 08:12:48;;;;;;;8.23;7.43;;;;;;;15.42;77.52;98410.63;4967694;28;20217;-85
2023/04/30 08:15:14;;;;;;;9.23;6.97;;;;;;;15.43;77.15;98409.66;4968933;28;20727;-85
2023/04/30 08:17:42;;;;;;;8.93;6.53;;;;;;;15.52;75.84;98406.25;4969179;28;20222;-85
2023/04/30 08:20:09;;;;;;;7.17;6.47;;;;;;;15.62;74.93;98396.47;4968847;28;20571;-90
2023/04/30 08:22:36;;;;;;;7.07;6.13;;;;;;;15.58;71.66;98374.56;4968755;28;20217;-87
2023/04/30 08:25:02;;;;;;;7.60;6.60;;;;;;;15.66;70.74;98381.91;4971432;28;20261;-87
2023/04/30 08:27:30;;;;;;;8.30;5.83;;;;;;;15.71;70.72;98382.38;4969163;28;20250;-85
2023/04/30 08:29:57;;;;;;;7.23;5.43;;;;;;;15.77;69.15;98369.34;4969378;28;20210;-81
2023/04/30 08:32:23;;;;;;;6.53;5.93;;;;;;;15.86;68.23;98365.06;4969954;28;20594;-84
2023/04/30 08:34:51;;;;;;;6.30;5.67;;;;;;;15.92;67.26;98364.53;4969607;28;20233;-82
2023/04/30 08:37:18;;;;;;;6.33;5.50;;;;;;;15.92;67.74;98361.84;4969780;28;20230;-84
2023/04/30 08:39:44;;;;;;;4.65;4.15;;;;;;;15.98;64.79;98350.66;4969723;28;20440;-86
2023/04/30 08:42:14;;;;;;;4.30;3.30;;;;;;;15.98;64.32;98348.84;4970236;28;20218;-86
2023/04/30 08:44:42;;;;;;;3.53;3.23;;;;;;;15.98;61.76;98331.00;4969753;28;20616;-86
2023/04/30 08:47:13;;;;;;;3.70;3.40;;;;;;;15.95;61.53;98329.63;5009922;22;20643;-87
2023/04/30 08:49:40;;;;;;;4.60;4.10;;;;;;;15.95;63.22;98345.59;5010320;28;20220;-88
2023/04/30 08:52:08;;;;;;;4.33;3.93;;;;;;;16.22;64.04;98358.19;5012297;28;20216;-87
2023/04/30 08:54:36;;;;;;;4.47;4.07;;;;;;;16.31;61.99;98341.38;5012372;28;20233;-87
2023/04/30 08:57:03;;;;;;;4.17;3.77;;;;;;;16.40;61.36;98337.09;5012349;28;20228;-88
2023/04/30 08:59:30;;;;;;;5.33;4.37;;;;;;;16.37;63.85;98359.50;5011924;28;20232;-90
2023/04/30 09:01:56;;;;;;;4.47;4.00;;;;;;;16.39;63.46;98359.41;5011985;28;20213;-76
2023/04/30 09:04:23;;;;;;;7.07;4.30;;;;;;;16.43;59.03;98313.66;5011507;28;20205;-88
2023/04/30 09:06:52;;;;;;;4.63;4.10;;;;;;;16.36;59.82;98328.47;5011042;28;20605;-88
2023/04/30 09:09:20;;;;;;;4.00;3.47;;;;;;;16.37;57.47;98314.16;5011529;28;20212;-88
2023/04/30 09:11:47;;;;;;;4.80;3.90;;;;;;;16.31;58.13;98322.72;5011599;28;20671;-82
2023/04/30 09:14:13;;;;;;;4.67;3.60;;;;;;;16.16;56.83;98297.38;5011593;28;20237;-85
2023/04/30 09:16:48;;;;;;;4.57;4.10;;;;;;;16.06;58.22;98321.53;5011464;28;20586;-85
2023/04/30 09:19:23;;;;;;;4.20;3.77;;;;;;;16.00;57.64;98316.72;5012147;28;20208;-86
2023/04/30 09:21:49;;;;;;;3.80;3.20;;;;;;;16.09;58.21;98322.09;5011406;28;20239;-86
2023/04/30 09:24:16;;;;;;;5.07;3.60;;;;;;;16.13;57.76;98311.00;5011801;28;20254;-85
2023/04/30 09:26:46;;;;;;;4.13;3.73;;;;;;;16.33;59.38;98330.59;5011410;28;20229;-86
2023/04/30 09:29:13;;;;;;;3.43;3.13;;;;;;;16.57;60.40;98344.44;5011319;28;20289;-86
2023/04/30 09:31:43;;;;;;;3.47;3.17;;;;;;;16.82;60.32;98344.72;5009117;28;20213;-85
2023/04/30 09:34:09;;;;;;;3.33;2.90;;;;;;;16.90;57.52;98320.00;5008864;28;20242;-86
2023/04/30 09:36:36;;;;;;;3.10;2.80;;;;;;;16.90;54.35;98280.81;5009055;28;20716;-86
2023/04/30 09:39:07;;;;;;;2.73;2.53;;;;;;;16.98;55.06;98302.28;5010305;28;20210;-88
2023/04/30 09:41:35;;;;;;;4.23;3.83;;;;;;;16.96;57.58;98324.78;5011622;28;20213;-88
2023/04/30 09:44:03;;;;;;;3.77;3.47;;;;;;;16.98;56.99;98323.66;5010088;28;20742;-86
2023/04/30 09:46:31;;;;;;;4.23;3.70;;;;;;;17.05;59.41;98346.13;5008893;28;20617;-86
2023/04/30 09:48:59;;;;;;;4.00;3.50;;;;;;;16.96;57.95;98338.94;5009576;28;20274;-87
2023/04/30 09:51:26;;;;;;;4.17;3.73;;;;;;;16.99;58.32;98332.50;5009179;28;20714;-86
2023/04/30 09:53:54;;;;;;;4.10;3.60;;;;;;;16.99;57.57;98325.34;5011460;28;20213;-88
2023/04/30 09:56:23;;;;;;;4.33;3.60;;;;;;;16.97;56.87;98326.47;5011295;28;20232;-87
2023/04/30 09:58:52;;;;;;;4.23;3.53;;;;;;;16.96;56.50;98319.44;5009062;28;20241;-89
2023/04/30 10:01:21;;;;;;;3.60;3.30;;;;;;;16.81;53.24;98270.09;5008699;28;20212;-89
2023/04/30 10:03:48;;;;;;;4.90;4.13;;;;;;;16.77;58.00;98330.13;5009070;28;20217;-89
2023/04/30 10:06:17;;;;;;;3.70;3.30;;;;;;;16.79;57.77;98329.00;5010696;28;20327;-89
2023/04/30 10:08:47;;;;;;;4.43;4.00;;;;;;;16.91;57.82;98327.88;5011578;28;20260;-87
2023/04/30 10:11:20;;;;;;;4.50;3.60;;;;;;;17.07;57.47;98332.66;5010590;28;20322;-89
2023/04/30 10:13:52;;;;;;;3.43;3.07;;;;;;;17.12;56.34;98309.88;5011366;28;20231;-88
2023/04/30 10:16:27;;;;;;;4.50;3.60;;;;;;;17.24;56.07;98321.25;5013138;28;20281;-87
2023/04/30 10:18:55;;;;;;;3.83;3.40;;;;;;;17.34;56.75;98314.91;5014986;28;20209;-89
2023/04/30 10:21:25;;;;;;;3.93;3.53;;;;;;;17.31;56.00;98315.19;5016068;28;20216;-83
2023/04/30 10:23:54;;;;;;;3.63;3.33;;;;;;;17.39;57.54;98326.03;5015537;28;20632;-90
2023/04/30 10:26:20;;;;;;;3.60;3.30;;;;;;;17.44;58.50;98347.81;5011021;28;20235;-88
2023/04/30 10:28:50;;;;;;;3.50;3.20;;;;;;;17.41;54.03;98285.78;5011539;28;20212;-89
2023/04/30 10:31:18;;;;;;;4.77;3.00;;;;;;;17.37;53.52;98277.22;5011376;28;20221;-88
2023/04/30 10:33:54;;;;;;;3.83;3.20;;;;;;;17.22;54.47;98299.16;5011122;28;20735;-85
2023/04/30 10:36:29;;;;;;;4.23;3.40;;;;;;;17.18;55.64;98306.63;5011703;28;20232;-88
2023/04/30 10:38:57;;;;;;;3.90;3.50;;;;;;;17.22;55.72;98308.03;5012984;28;20212;-89
2023/04/30 10:41:28;;;;;;;3.40;3.10;;;;;;;17.39;55.34;98306.50;5012097;28;20206;-88
2023/04/30 10:43:58;;;;;;;4.77;3.37;;;;;;;17.49;54.80;98300.13;5012504;28;20213;-87
2023/04/30 10:46:26;;;;;;;4.43;3.10;;;;;;;17.45;54.40;98296.06;5011960;28;20241;-86
2023/04/30 10:48:54;;;;;;;3.57;3.27;;;;;;;17.50;53.13;98276.94;5013275;28;20275;-86
2023/04/30 10:51:21;;;;;;;3.40;3.10;;;;;;;17.60;55.21;98304.44;5015377;28;20210;-87
2023/04/30 10:53:50;;;;;;;3.30;3.00;;;;;;;17.64;54.60;98295.16;5015847;28;20201;-86
2023/04/30 10:56:30;;;;;;;3.70;3.30;;;;;;;17.69;54.72;98301.75;5013397;28;20608;-87
2023/04/30 10:59:00;;;;;;;3.50;3.20;;;;;;;17.76;53.42;98283.31;5012992;28;20254;-87
2023/04/30 11:01:27;;;;;;;3.93;3.07;;;;;;;17.66;53.05;98283.34;5012736;28;20262;-86
2023/04/30 11:04:06;;;;;;;3.33;3.03;;;;;;;17.61;52.68;98274.91;5009808;28;20225;-89
2023/04/30 11:07:08;;;;;;;3.50;3.20;;;;;;;17.70;52.15;98263.34;5009327;28;20599;-88
2023/04/30 11:09:37;;;;;;;3.80;3.50;;;;;;;17.75;52.84;98276.28;5009841;28;20205;-88
2023/04/30 11:12:05;;;;;;;3.80;3.50;;;;;;;17.86;52.63;98265.41;5010895;28;20209;-88
2023/04/30 11:14:33;;;;;;;3.87;3.40;;;;;;;18.00;51.68;98252.38;5015069;28;20229;-88
2023/04/30 11:17:00;;;;;;;3.63;3.30;;;;;;;18.07;53.70;98287.38;5014824;28;20283;-89
2023/04/30 11:19:29;;;;;;;3.67;3.37;;;;;;;18.20;53.08;98278.03;5014254;28;20218;-89
2023/04/30 11:22:16;;;;;;;4.03;3.63;;;;;;;18.30;53.29;98284.13;5012010;28;20708;-89
2023/04/30 11:24:53;;;;;;;3.90;3.60;;;;;;;18.31;52.70;98269.81;5011524;28;20217;-88
2023/04/30 11:27:21;;;;;;;3.97;3.57;;;;;;;18.40;53.23;98274.25;5013580;28;20347;-89